Time;durP1;ratioP1;P1;durP2;ratioP2;P2;SDS_P1;SDS_P2;PMS_P1;PMS_P2;Temp;Humidity;BMP_temperature;BMP_pressure;BME280_temperature;BME280_humidity;BME280_pressure;Samples;Min_cycle;Max_cycle;Signal;HPM_P1;HPM_P2
2021/05/23 00:02:09;;;;;;;1.13;1.13;;;17.60;63.20;;;;;;5052648;28;20025;-66
2021/05/23 00:04:34;;;;;;;3.28;1.30;;;17.60;63.30;;;;;;5052684;28;20053;-66
2021/05/23 00:07:00;;;;;;;2.45;1.30;;;17.60;63.30;;;;;;5052664;28;20387;-65
2021/05/23 00:09:26;;;;;;;1.33;1.10;;;17.70;63.30;;;;;;5052668;28;20526;-65
2021/05/23 00:11:52;;;;;;;1.38;1.15;;;17.40;63.20;;;;;;5052650;28;20052;-65
2021/05/23 00:14:19;;;;;;;2.28;1.42;;;17.50;63.30;;;;;;5052847;28;20032;-66
2021/05/23 00:16:45;;;;;;;1.83;1.10;;;17.60;63.30;;;;;;5052421;28;20144;-66
2021/05/23 00:19:11;;;;;;;1.77;1.30;;;17.60;63.40;;;;;;5052466;28;20645;-65
2021/05/23 00:21:37;;;;;;;1.52;1.10;;;17.60;63.40;;;;;;5055984;28;20021;-65
2021/05/23 00:24:03;;;;;;;2.65;1.63;;;17.50;63.40;;;;;;5055306;28;20387;-66
2021/05/23 00:26:29;;;;;;;1.88;1.40;;;17.60;63.40;;;;;;5056477;28;20082;-66
2021/05/23 00:28:55;;;;;;;1.10;1.08;;;17.50;63.40;;;;;;5038785;28;20137;-66
2021/05/23 00:31:22;;;;;;;1.23;1.13;;;17.50;63.50;;;;;;5056794;28;20025;-66
2021/05/23 00:33:47;;;;;;;2.25;1.30;;;17.50;63.50;;;;;;5055058;28;20403;-66
2021/05/23 00:36:13;;;;;;;2.53;1.20;;;17.50;63.60;;;;;;5056304;28;20024;-66
2021/05/23 00:38:40;;;;;;;1.10;1.00;;;17.50;88.30;;;;;;5056518;28;20475;-65
2021/05/23 00:41:05;;;;;;;1.77;1.25;;;17.40;63.50;;;;;;5056513;28;20029;-66
2021/05/23 00:43:31;;;;;;;2.17;1.10;;;17.50;63.70;;;;;;5056218;28;20020;-66
2021/05/23 00:45:57;;;;;;;0.90;0.90;;;17.20;63.40;;;;;;5054722;28;20033;-66
2021/05/23 00:48:23;;;;;;;1.35;1.25;;;17.30;63.50;;;;;;5056270;28;20212;-66
2021/05/23 00:50:50;;;;;;;1.92;1.00;;;17.50;63.70;;;;;;5055958;28;20021;-65
2021/05/23 00:53:16;;;;;;;1.38;0.93;;;17.50;63.70;;;;;;5055809;28;20051;-65
2021/05/23 00:55:41;;;;;;;1.45;1.02;;;17.20;63.60;;;;;;5056110;28;20029;-65
2021/05/23 00:58:08;;;;;;;1.02;0.90;;;17.40;63.70;;;;;;5055919;28;20539;-65
2021/05/23 01:00:39;;;;;;;1.17;1.08;;;17.50;63.70;;;;;;5055744;28;20383;-65
2021/05/23 01:03:45;;;;;;;1.40;1.17;;;17.30;63.70;;;;;;5055590;28;20514;-65
2021/05/23 01:06:11;;;;;;;1.83;1.38;;;17.20;63.60;;;;;;5055502;28;20119;-65
2021/05/23 01:08:38;;;;;;;1.02;0.93;;;17.40;63.80;;;;;;5055519;28;20029;-65
2021/05/23 01:11:04;;;;;;;1.08;1.08;;;17.40;63.80;;;;;;5055772;28;20453;-65
2021/05/23 01:13:44;;;;;;;1.45;1.05;;;17.40;63.80;;;;;;5055626;28;20021;-65
2021/05/23 01:16:21;;;;;;;4.03;1.17;;;17.40;63.80;;;;;;5055356;28;20033;-65
2021/05/23 01:18:56;;;;;;;1.48;1.20;;;17.40;63.80;;;;;;5054192;28;20075;-65
2021/05/23 01:21:26;;;;;;;1.00;0.82;;;17.40;63.90;;;;;;5055298;28;20051;-65
2021/05/23 01:23:54;;;;;;;1.87;1.17;;;17.40;63.90;;;;;;5054025;28;20029;-66
2021/05/23 01:26:23;;;;;;;2.00;1.20;;;17.80;64.80;;;;;;5055474;28;20075;-65
2021/05/23 01:28:53;;;;;;;1.23;1.13;;;17.30;63.90;;;;;;5055188;28;20051;-65
2021/05/23 01:31:21;;;;;;;3.42;1.35;;;17.40;64.00;;;;;;5053882;28;20490;-65
2021/05/23 01:33:56;;;;;;;1.25;1.13;;;17.40;89.00;;;;;;5054969;28;20029;-65
2021/05/23 01:36:23;;;;;;;1.35;1.00;;;17.30;63.90;;;;;;5055056;28;20032;-65
2021/05/23 01:38:50;;;;;;;0.80;0.80;;;17.40;63.50;;;;;;5054989;28;20029;-65
2021/05/23 01:41:16;;;;;;;1.10;1.00;;;17.30;63.90;;;;;;5054945;28;20064;-66
2021/05/23 01:43:42;;;;;;;1.10;0.85;;;17.10;63.80;;;;;;5053609;28;20025;-66
2021/05/23 01:46:09;;;;;;;1.27;1.17;;;17.30;64.00;;;;;;5054828;28;20028;-66
2021/05/23 01:48:37;;;;;;;1.75;1.30;;;17.30;64.00;;;;;;5054842;28;20055;-66
2021/05/23 01:51:04;;;;;;;1.30;1.20;;;17.10;63.90;;;;;;5054795;28;20032;-66
2021/05/23 01:53:29;;;;;;;0.88;0.88;;;17.30;64.00;;;;;;5054575;28;20472;-66
2021/05/23 01:55:55;;;;;;;1.38;1.27;;;17.30;64.00;;;;;;5053445;28;20112;-66
2021/05/23 01:58:21;;;;;;;1.70;0.98;;;17.00;63.90;;;;;;5053333;28;20021;-66
2021/05/23 02:00:49;;;;;;;0.98;0.88;;;17.30;64.00;;;;;;5054614;28;20040;-65
2021/05/23 02:03:17;;;;;;;1.85;1.08;;;17.10;88.50;;;;;;5054595;28;20164;-66
2021/05/23 02:06:04;;;;;;;1.48;1.10;;;17.10;64.00;;;;;;5054416;28;20120;-67
2021/05/23 02:08:32;;;;;;;1.45;1.20;;;17.30;64.10;;;;;;5054429;28;20045;-66
2021/05/23 02:11:07;;;;;;;1.60;1.30;;;17.30;64.10;;;;;;5054433;28;20029;-66
2021/05/23 02:13:34;;;;;;;1.90;1.38;;;17.30;64.10;;;;;;5054459;28;20039;-66
2021/05/23 02:16:00;;;;;;;1.67;1.50;;;17.20;64.10;;;;;;5054743;28;20060;-66
2021/05/23 02:18:25;;;;;;;1.48;1.38;;;17.30;64.20;;;;;;5052976;28;20021;-66
2021/05/23 02:20:51;;;;;;;1.55;1.27;;;17.20;64.20;;;;;;5054331;28;20035;-66
2021/05/23 02:23:22;;;;;;;2.28;1.23;;;17.20;64.20;;;;;;5054170;28;20029;-66
2021/05/23 02:25:48;;;;;;;0.95;0.95;;;17.10;64.10;;;;;;5054413;28;20036;-66
2021/05/23 02:28:15;;;;;;;1.50;1.40;;;17.20;64.20;;;;;;5054470;28;20027;-66
2021/05/23 02:30:50;;;;;;;2.03;1.30;;;17.20;64.20;;;;;;5054152;28;20021;-66
2021/05/23 02:33:17;;;;;;;1.40;1.30;;;17.20;64.20;;;;;;5054075;28;20052;-66
2021/05/23 02:35:46;;;;;;;1.23;1.08;;;17.10;64.10;;;;;;5054003;28;20509;-66
2021/05/23 02:38:13;;;;;;;1.67;1.58;;;17.20;64.30;;;;;;5053992;28;20035;-66
2021/05/23 02:40:40;;;;;;;1.40;1.30;;;17.20;64.30;;;;;;5053857;28;20040;-66
2021/05/23 02:43:06;;;;;;;1.50;1.35;;;17.20;64.30;;;;;;5053766;28;20418;-66
2021/05/23 02:45:34;;;;;;;1.55;1.40;;;17.20;64.30;;;;;;5054103;28;20025;-66
2021/05/23 02:48:02;;;;;;;1.85;1.10;;;17.20;64.30;;;;;;5053713;28;20036;-66
2021/05/23 02:50:30;;;;;;;1.55;1.20;;;16.90;64.10;;;;;;5053722;28;20079;-67
2021/05/23 02:52:56;;;;;;;1.20;1.10;;;17.20;64.30;;;;;;5053663;28;20100;-66
2021/05/23 02:55:22;;;;;;;1.27;1.13;;;17.20;64.30;;;;;;5054143;28;20040;-66
2021/05/23 02:57:48;;;;;;;1.10;1.00;;;17.10;64.30;;;;;;5053889;28;20120;-65
2021/05/23 03:00:19;;;;;;;1.13;1.10;;;17.10;64.30;;;;;;5053524;28;20087;-66
2021/05/23 03:02:45;;;;;;;1.23;1.08;;;17.20;64.30;;;;;;5052247;28;20032;-66
2021/05/23 03:05:14;;;;;;;1.55;1.30;;;17.10;64.30;;;;;;5053304;28;20037;-66
2021/05/23 03:07:42;;;;;;;2.08;1.25;;;17.10;64.40;;;;;;5053412;28;20463;-66
2021/05/23 03:10:11;;;;;;;1.17;1.08;;;17.10;64.30;;;;;;5053424;28;20439;-66
2021/05/23 03:12:38;;;;;;;1.33;1.20;;;17.10;64.30;;;;;;5053317;28;20475;-67
2021/05/23 03:15:10;;;;;;;1.63;1.45;;;17.10;64.30;;;;;;5053217;28;20041;-66
2021/05/23 03:17:35;;;;;;;1.20;1.15;;;17.10;64.30;;;;;;5053326;28;20021;-67
2021/05/23 03:20:01;;;;;;;3.55;1.17;;;17.10;64.40;;;;;;5051962;28;20025;-66
2021/05/23 03:22:26;;;;;;;1.58;1.20;;;17.10;64.40;;;;;;5053419;28;20025;-67
2021/05/23 03:24:52;;;;;;;1.38;1.27;;;17.00;64.40;;;;;;5053180;28;20024;-67
2021/05/23 03:27:17;;;;;;;1.50;1.40;;;17.10;64.40;;;;;;5053114;28;20033;-67
2021/05/23 03:29:43;;;;;;;1.83;1.48;;;17.10;64.40;;;;;;5053265;28;20078;-66
2021/05/23 03:32:09;;;;;;;1.40;1.25;;;17.10;64.40;;;;;;5053072;28;20025;-67
2021/05/23 03:34:34;;;;;;;0.88;0.88;;;17.10;63.90;;;;;;5051955;28;20079;-66
2021/05/23 03:37:00;;;;;;;1.40;1.30;;;17.70;90.20;;;;;;5052911;28;20020;-66
2021/05/23 03:39:25;;;;;;;1.33;1.20;;;16.80;64.30;;;;;;5052843;28;20033;-66
2021/05/23 03:41:51;;;;;;;3.50;1.40;;;17.10;89.20;;;;;;5052992;28;20021;-66
2021/05/23 03:44:17;;;;;;;1.40;1.30;;;17.10;64.50;;;;;;5053086;28;20549;-66
2021/05/23 03:46:42;;;;;;;1.70;1.30;;;17.20;64.60;;;;;;5052841;28;20472;-66
2021/05/23 03:49:08;;;;;;;1.30;1.20;;;17.70;64.90;;;;;;5052712;28;20074;-66
2021/05/23 03:51:34;;;;;;;1.60;1.50;;;17.00;64.40;;;;;;5052985;28;20013;-66
2021/05/23 03:53:59;;;;;;;2.55;1.45;;;17.00;64.50;;;;;;5052351;28;20536;-66
2021/05/23 03:56:25;;;;;;;1.98;1.50;;;17.10;64.50;;;;;;5050920;28;20098;-66
2021/05/23 03:58:50;;;;;;;1.67;1.38;;;16.80;64.40;;;;;;5052681;28;20033;-66
2021/05/23 04:01:16;;;;;;;2.33;1.40;;;17.00;64.50;;;;;;5052580;28;20545;-66
2021/05/23 04:03:44;;;;;;;1.25;1.10;;;17.00;64.50;;;;;;5052371;28;20494;-66
2021/05/23 04:06:10;;;;;;;1.83;1.30;;;17.00;64.50;;;;;;5052514;28;20033;-66
2021/05/23 04:08:36;;;;;;;1.55;1.42;;;17.00;64.50;;;;;;5052979;28;20511;-66
2021/05/23 04:11:08;;;;;;;1.83;1.20;;;17.00;64.50;;;;;;5052576;28;20040;-67
2021/05/23 04:13:36;;;;;;;1.63;1.45;;;17.00;64.50;;;;;;5053063;28;20032;-67
2021/05/23 04:16:02;;;;;;;2.25;1.40;;;17.00;64.60;;;;;;5052761;28;20028;-67
2021/05/23 04:18:28;;;;;;;1.88;1.50;;;17.00;64.50;;;;;;5052653;28;20025;-66
2021/05/23 04:20:53;;;;;;;1.90;1.23;;;17.00;64.50;;;;;;5051088;28;20028;-66
2021/05/23 04:23:20;;;;;;;2.88;1.20;;;17.00;64.50;;;;;;5052364;28;20028;-66
2021/05/23 04:25:45;;;;;;;2.13;1.60;;;16.70;64.30;;;;;;5052345;28;20025;-66
2021/05/23 04:28:12;;;;;;;1.85;1.20;;;17.10;64.60;;;;;;5052296;28;20029;-66
2021/05/23 04:30:37;;;;;;;2.40;1.30;;;17.00;64.50;;;;;;5052331;28;20048;-66
2021/05/23 04:33:03;;;;;;;3.22;1.27;;;16.90;64.40;;;;;;5050935;28;20114;-66
2021/05/23 04:35:29;;;;;;;1.52;1.10;;;17.00;64.50;;;;;;5051055;28;20168;-66
2021/05/23 04:37:57;;;;;;;1.30;1.20;;;16.90;64.50;;;;;;5052145;28;20025;-66
2021/05/23 04:40:23;;;;;;;1.23;1.13;;;16.90;64.40;;;;;;5052172;28;20026;-66
2021/05/23 04:42:49;;;;;;;2.22;1.05;;;17.00;64.50;;;;;;5052155;28;20032;-66
2021/05/23 04:45:15;;;;;;;2.08;1.08;;;16.80;64.40;;;;;;5050820;28;20127;-66
2021/05/23 04:47:41;;;;;;;2.15;1.33;;;16.80;64.50;;;;;;5052076;28;20464;-66
2021/05/23 04:50:08;;;;;;;2.47;1.15;;;16.90;64.40;;;;;;5052304;28;20028;-66
2021/05/23 04:52:34;;;;;;;1.90;1.10;;;16.90;64.40;;;;;;5052069;28;20543;-66
2021/05/23 04:55:00;;;;;;;2.88;1.35;;;16.90;64.50;;;;;;5051996;28;20082;-66
2021/05/23 04:57:26;;;;;;;0.98;0.85;;;16.90;64.50;;;;;;5052636;28;20360;-66
2021/05/23 04:59:53;;;;;;;1.60;1.13;;;16.90;64.50;;;;;;5051025;28;20021;-66
2021/05/23 05:02:21;;;;;;;2.78;1.20;;;16.80;64.40;;;;;;5051971;28;20029;-67
2021/05/23 05:04:47;;;;;;;2.08;1.17;;;16.80;64.40;;;;;;5051895;28;20053;-66
2021/05/23 05:07:13;;;;;;;1.90;1.15;;;16.90;64.40;;;;;;5054564;28;20025;-66
2021/05/23 05:09:39;;;;;;;1.27;0.98;;;16.90;64.40;;;;;;5055795;28;20021;-66
2021/05/23 05:12:06;;;;;;;1.75;0.90;;;16.90;64.40;;;;;;5055598;28;20502;-66
2021/05/23 05:14:31;;;;;;;2.03;1.00;;;16.90;64.40;;;;;;5055414;28;20043;-66
2021/05/23 05:16:57;;;;;;;1.98;1.13;;;16.90;64.40;;;;;;5055451;28;20021;-66
2021/05/23 05:19:22;;;;;;;2.45;1.20;;;16.90;64.40;;;;;;5055439;28;20033;-66
2021/05/23 05:21:48;;;;;;;2.58;1.20;;;16.90;64.40;;;;;;5055648;28;20070;-66
2021/05/23 05:24:14;;;;;;;1.98;1.20;;;16.90;64.40;;;;;;5055560;28;20025;-67
2021/05/23 05:26:40;;;;;;;1.65;1.10;;;17.00;64.50;;;;;;5055260;28;20021;-66
2021/05/23 05:29:06;;;;;;;1.23;1.13;;;16.90;64.40;;;;;;5053914;28;20063;-66
2021/05/23 05:31:32;;;;;;;2.00;1.08;;;16.90;64.40;;;;;;5055202;28;20472;-66
2021/05/23 05:33:58;;;;;;;4.97;1.63;;;16.60;64.20;;;;;;5055385;28;20112;-66
2021/05/23 05:36:23;;;;;;;2.35;1.33;;;16.90;64.40;;;;;;5055127;28;20088;-66
2021/05/23 05:38:49;;;;;;;2.20;0.90;;;16.80;64.30;;;;;;5055048;28;20021;-66
2021/05/23 05:41:19;;;;;;;1.67;1.30;;;17.00;64.40;;;;;;5055015;28;20025;-66
2021/05/23 05:43:45;;;;;;;1.60;1.10;;;16.90;64.40;;;;;;5055024;28;20526;-66
2021/05/23 05:46:10;;;;;;;1.92;1.40;;;16.70;64.20;;;;;;5055141;28;20496;-66
2021/05/23 05:48:36;;;;;;;1.33;0.80;;;16.90;64.30;;;;;;5055192;28;20468;-66
2021/05/23 05:51:01;;;;;;;1.35;1.00;;;16.90;64.20;;;;;;5054786;28;20024;-66
2021/05/23 05:53:27;;;;;;;1.10;0.95;;;16.90;64.20;;;;;;5054679;28;20029;-66
2021/05/23 05:55:53;;;;;;;1.45;0.90;;;16.90;64.30;;;;;;5054808;28;20032;-66
2021/05/23 05:58:18;;;;;;;2.45;1.17;;;16.90;64.30;;;;;;5054982;28;20025;-66
2021/05/23 06:00:44;;;;;;;3.20;1.45;;;16.90;64.30;;;;;;5054724;28;20379;-66
2021/05/23 06:03:10;;;;;;;1.95;1.05;;;16.60;64.10;;;;;;5054696;28;20099;-66
2021/05/23 06:05:35;;;;;;;3.17;1.10;;;16.80;64.20;;;;;;5053310;28;20075;-66
2021/05/23 06:08:01;;;;;;;1.92;0.90;;;16.90;64.30;;;;;;5054541;28;20364;-66
2021/05/23 06:10:27;;;;;;;1.65;1.10;;;16.90;64.30;;;;;;5054699;28;20037;-67
2021/05/23 06:12:52;;;;;;;1.60;1.13;;;16.90;64.30;;;;;;5054666;28;20063;-66
2021/05/23 06:15:18;;;;;;;2.47;1.10;;;16.70;64.20;;;;;;5054231;28;20055;-66
2021/05/23 06:17:44;;;;;;;3.65;1.30;;;17.00;64.40;;;;;;5053457;28;20103;-66
2021/05/23 06:20:10;;;;;;;2.78;1.17;;;16.90;64.30;;;;;;5054278;28;20021;-66
2021/05/23 06:22:35;;;;;;;2.35;1.13;;;16.90;64.30;;;;;;5054197;28;20025;-66
2021/05/23 06:25:01;;;;;;;2.65;0.80;;;16.90;64.30;;;;;;5054431;28;20047;-66
2021/05/23 06:27:27;;;;;;;2.15;0.93;;;16.90;64.20;;;;;;5054124;28;20379;-66
2021/05/23 06:29:52;;;;;;;2.47;1.00;;;16.90;64.20;;;;;;5054106;28;20017;-66
2021/05/23 06:32:18;;;;;;;3.13;1.00;;;16.90;64.30;;;;;;5054079;28;20075;-66
2021/05/23 06:34:44;;;;;;;2.55;1.10;;;16.90;64.20;;;;;;5053934;28;20531;-65
2021/05/23 06:37:09;;;;;;;1.63;0.82;;;16.90;64.20;;;;;;5052612;28;20021;-66
2021/05/23 06:39:35;;;;;;;1.38;1.27;;;16.70;64.00;;;;;;5052617;28;20070;-66
2021/05/23 06:42:01;;;;;;;3.58;1.38;;;16.80;64.10;;;;;;5053774;28;20052;-66
2021/05/23 06:44:26;;;;;;;1.95;0.82;;;16.70;64.10;;;;;;5052489;28;20238;-66
2021/05/23 06:46:52;;;;;;;2.45;1.00;;;17.00;64.10;;;;;;5053795;28;20028;-66
2021/05/23 06:49:17;;;;;;;2.83;1.20;;;16.90;64.10;;;;;;5054014;28;20145;-66
2021/05/23 06:51:43;;;;;;;1.80;1.00;;;16.80;64.00;;;;;;5053640;28;20025;-66
2021/05/23 06:54:10;;;;;;;2.05;1.10;;;17.00;64.10;;;;;;5053952;28;20021;-65
2021/05/23 06:56:35;;;;;;;2.00;0.95;;;16.90;64.00;;;;;;5053842;28;20428;-66
2021/05/23 06:59:02;;;;;;;1.92;0.80;;;16.90;64.00;;;;;;5053681;28;20033;-66
2021/05/23 07:01:27;;;;;;;2.25;0.95;;;16.90;63.90;;;;;;5053604;28;20028;-66
2021/05/23 07:03:53;;;;;;;2.80;1.30;;;16.70;63.80;;;;;;5052166;28;20602;-65
2021/05/23 07:06:18;;;;;;;2.08;0.93;;;17.00;63.90;;;;;;5053871;28;20036;-66
2021/05/23 07:08:44;;;;;;;2.50;1.00;;;16.90;63.90;;;;;;5053612;28;20021;-65
2021/05/23 07:11:10;;;;;;;1.45;1.00;;;16.90;63.90;;;;;;5054007;28;20078;-66
2021/05/23 07:13:36;;;;;;;1.88;1.00;;;16.90;63.90;;;;;;5053578;28;20071;-64
2021/05/23 07:16:01;;;;;;;2.63;0.80;;;16.90;63.80;;;;;;5053326;28;20054;-66
2021/05/23 07:18:27;;;;;;;1.55;0.98;;;16.90;63.70;;;;;;5053319;28;20060;-65
2021/05/23 07:20:54;;;;;;;2.72;1.02;;;16.70;63.60;;;;;;5053200;28;20029;-65
2021/05/23 07:23:20;;;;;;;6.30;1.05;;;16.70;63.60;;;;;;5053428;28;20075;-64
2021/05/23 07:25:45;;;;;;;1.70;0.95;;;17.00;63.80;;;;;;5053112;28;20029;-64
2021/05/23 07:28:11;;;;;;;1.63;1.17;;;16.90;63.70;;;;;;5053323;28;20116;-65
2021/05/23 07:30:37;;;;;;;1.83;0.98;;;16.80;63.70;;;;;;5053000;28;20021;-66
2021/05/23 07:33:02;;;;;;;1.65;0.75;;;17.10;63.90;;;;;;5053103;28;20029;-66
2021/05/23 07:35:28;;;;;;;2.70;1.20;;;17.00;63.70;;;;;;5052963;28;20099;-65
2021/05/23 07:37:54;;;;;;;4.45;0.98;;;17.00;63.80;;;;;;5052941;28;20060;-65
2021/05/23 07:40:19;;;;;;;2.22;1.00;;;17.00;64.40;;;;;;5052581;28;20440;-65
2021/05/23 07:42:45;;;;;;;1.50;0.80;;;17.00;63.60;;;;;;5052874;28;20021;-66
2021/05/23 07:45:11;;;;;;;1.70;0.88;;;17.00;63.70;;;;;;5052833;28;20025;-65
2021/05/23 07:47:37;;;;;;;2.10;0.80;;;17.10;63.60;;;;;;5052870;28;20025;-65
2021/05/23 07:50:05;;;;;;;3.03;1.05;;;17.10;63.60;;;;;;5051472;28;20198;-65
2021/05/23 07:52:30;;;;;;;1.52;0.70;;;17.10;63.60;;;;;;5052700;28;20036;-65
2021/05/23 07:54:57;;;;;;;2.78;0.85;;;16.90;63.50;;;;;;5052552;28;20029;-63
2021/05/23 07:57:22;;;;;;;1.85;0.80;;;17.30;63.60;;;;;;5052790;28;20028;-63
2021/05/23 07:59:48;;;;;;;5.22;1.00;;;17.00;63.30;;;;;;5052663;28;20025;-65
2021/05/23 08:02:13;;;;;;;4.22;1.00;;;17.10;63.50;;;;;;5051282;28;20047;-67
2021/05/23 08:04:39;;;;;;;3.00;1.00;;;17.10;63.80;;;;;;5052355;28;20045;-66
2021/05/23 08:07:05;;;;;;;2.03;1.00;;;16.90;64.00;;;;;;5052509;28;20025;-67
2021/05/23 08:09:30;;;;;;;2.47;1.10;;;17.20;64.30;;;;;;5051251;28;20120;-67
2021/05/23 08:11:56;;;;;;;2.50;1.00;;;17.30;64.20;;;;;;5051238;28;20115;-66
2021/05/23 08:14:22;;;;;;;2.20;0.85;;;17.20;64.10;;;;;;5052765;28;20044;-67
2021/05/23 08:16:48;;;;;;;4.88;1.13;;;17.30;88.60;;;;;;5052496;28;20515;-68
2021/05/23 08:19:14;;;;;;;1.70;0.70;;;17.60;64.10;;;;;;5052744;28;20353;-67
2021/05/23 08:21:40;;;;;;;1.83;0.80;;;17.10;63.80;;;;;;5052726;28;20024;-68
2021/05/23 08:24:07;;;;;;;4.35;1.02;;;17.20;63.80;;;;;;5052621;28;20022;-67
2021/05/23 08:26:33;;;;;;;5.85;1.05;;;17.20;63.60;;;;;;5052375;28;20388;-67
2021/05/23 08:29:00;;;;;;;3.42;1.45;;;17.20;63.50;;;;;;5052643;28;20021;-67
2021/05/23 08:31:26;;;;;;;4.05;0.85;;;17.10;63.40;;;;;;5052425;28;20427;-67
2021/05/23 08:33:52;;;;;;;2.42;0.85;;;17.20;63.60;;;;;;5052525;28;20029;-67
2021/05/23 08:36:18;;;;;;;4.97;1.10;;;17.30;87.90;;;;;;5052334;28;20444;-67
2021/05/23 08:38:44;;;;;;;4.45;1.30;;;17.70;63.40;;;;;;5052254;28;20545;-67
2021/05/23 08:41:09;;;;;;;3.45;1.23;;;17.30;63.10;;;;;;5053415;28;20068;-67
2021/05/23 08:43:35;;;;;;;2.90;0.80;;;17.20;63.00;;;;;;5056423;28;20376;-67
2021/05/23 08:46:01;;;;;;;5.60;1.00;;;17.20;62.90;;;;;;5054812;28;20029;-66
2021/05/23 08:48:27;;;;;;;2.67;0.88;;;17.30;62.90;;;;;;5056393;28;20021;-67
2021/05/23 08:50:53;;;;;;;5.57;1.40;;;17.30;63.00;;;;;;5054784;28;20020;-64
2021/05/23 08:53:19;;;;;;;3.33;1.25;;;17.30;62.90;;;;;;5056073;28;20047;-64
2021/05/23 08:55:45;;;;;;;3.85;1.08;;;17.10;62.80;;;;;;5056135;28;20472;-63
2021/05/23 08:58:11;;;;;;;7.25;1.10;;;17.30;63.00;;;;;;5054605;28;20060;-64
2021/05/23 09:00:37;;;;;;;4.22;0.68;;;17.20;62.80;;;;;;5055948;28;20113;-64
2021/05/23 09:03:10;;;;;;;3.28;1.00;;;17.40;62.80;;;;;;5054596;28;20024;-63
2021/05/23 09:05:37;;;;;;;2.72;1.08;;;17.40;62.80;;;;;;5055700;28;20092;-65
2021/05/23 09:08:21;;;;;;;2.03;0.85;;;17.30;62.60;;;;;;5055741;28;20029;-64
2021/05/23 09:10:49;;;;;;;3.05;0.75;;;17.40;62.50;;;;;;5055668;28;20032;-64
2021/05/23 09:13:29;;;;;;;2.35;0.75;;;17.40;62.50;;;;;;5055635;28;20099;-64
2021/05/23 09:16:02;;;;;;;;;;;17.40;62.30;;;;;;5056211;28;20040;-64
2021/05/23 09:18:50;;;;;;;3.47;1.00;;;17.40;62.30;;;;;;5054171;28;19916;-64
2021/05/23 09:21:18;;;;;;;2.20;1.15;;;17.40;62.60;;;;;;5055504;28;20021;-64
2021/05/23 09:23:56;;;;;;;5.45;1.20;;;17.20;62.40;;;;;;5055327;28;20032;-64
2021/05/23 09:26:30;;;;;;;5.78;1.17;;;17.30;62.70;;;;;;5055357;28;20059;-68
2021/05/23 09:29:06;;;;;;;3.35;0.88;;;17.50;62.40;;;;;;5055179;28;20484;-68
2021/05/23 09:31:32;;;;;;;5.10;0.75;;;17.30;62.50;;;;;;5054061;28;20021;-68
2021/05/23 09:33:58;;;;;;;2.22;0.85;;;17.50;62.60;;;;;;5055299;28;20017;-68
2021/05/23 09:36:24;;;;;;;3.40;1.15;;;17.50;62.80;;;;;;5055073;28;20029;-70
2021/05/23 09:38:54;;;;;;;4.35;0.75;;;17.50;62.80;;;;;;5055099;28;20056;-69
2021/05/23 09:41:35;;;;;;;1.15;0.80;;;18.20;63.00;;;;;;5055599;28;20104;-69
2021/05/23 09:44:15;;;;;;;3.20;0.90;;;17.70;62.40;;;;;;5055264;28;20032;-69
2021/05/23 09:47:09;;;;;;;2.40;0.77;;;17.80;62.30;;;;;;5055021;28;20025;-70
2021/05/23 09:49:57;;;;;;;3.28;0.90;;;17.80;62.10;;;;;;5054929;28;20024;-69
2021/05/23 09:52:36;;;;;;;4.75;1.23;;;17.90;62.10;;;;;;5053337;28;20064;-67
2021/05/23 09:55:05;;;;;;;1.92;0.90;;;17.90;61.90;;;;;;5055028;28;20037;-69
2021/05/23 09:57:30;;;;;;;3.08;1.00;;;18.00;61.90;;;;;;5054589;28;20020;-68
2021/05/23 10:00:11;;;;;;;1.67;0.70;;;18.00;61.90;;;;;;5054679;28;20396;-68
2021/05/23 10:02:57;;;;;;;2.58;0.70;;;18.00;61.70;;;;;;5054565;28;20353;-68
2021/05/23 10:05:23;;;;;;;1.95;0.80;;;18.10;61.70;;;;;;5054396;28;20041;-67
2021/05/23 10:07:49;;;;;;;1.52;0.73;;;17.80;61.60;;;;;;5054573;28;20108;-67
2021/05/23 10:10:16;;;;;;;1.98;0.85;;;18.70;62.10;;;;;;5054523;28;20052;-67
2021/05/23 10:12:42;;;;;;;2.92;0.90;;;18.20;61.80;;;;;;5054576;28;20536;-68
2021/05/23 10:15:10;;;;;;;3.10;0.85;;;18.20;61.40;;;;;;5054281;28;20072;-68
2021/05/23 10:17:37;;;;;;;2.47;0.80;;;18.30;61.20;;;;;;5054700;28;20019;-67
2021/05/23 10:20:06;;;;;;;1.70;0.60;;;18.20;60.60;;;;;;5052979;28;20025;-68
2021/05/23 10:22:50;;;;;;;4.68;0.80;;;18.40;60.60;;;;;;5054321;28;20037;-67
2021/05/23 10:25:16;;;;;;;5.88;1.33;;;18.30;60.10;;;;;;5054357;28;20029;-68
2021/05/23 10:27:44;;;;;;;1.85;1.00;;;18.40;60.00;;;;;;5054579;28;20053;-68
2021/05/23 10:30:12;;;;;;;2.40;1.10;;;18.40;59.70;;;;;;5054501;28;20032;-68
2021/05/23 10:32:39;;;;;;;2.85;1.00;;;18.50;59.50;;;;;;5054305;28;20024;-68
2021/05/23 10:35:21;;;;;;;1.83;0.80;;;18.30;59.30;;;;;;5054319;28;20395;-67
2021/05/23 10:37:49;;;;;;;3.63;1.02;;;18.60;58.50;;;;;;5054480;28;20017;-67
2021/05/23 10:40:22;;;;;;;2.25;0.80;;;18.30;58.90;;;;;;5053948;28;20104;-68
2021/05/23 10:42:58;;;;;;;2.65;0.60;;;18.70;59.10;;;;;;5054008;28;20083;-67
2021/05/23 10:45:30;;;;;;;4.45;1.08;;;18.60;58.70;;;;;;5053764;28;20349;-70
2021/05/23 10:47:57;;;;;;;2.75;0.80;;;18.70;58.40;;;;;;5054206;28;20419;-68
2021/05/23 10:50:31;;;;;;;2.00;0.63;;;18.70;59.10;;;;;;5053861;28;20021;-68
2021/05/23 10:52:58;;;;;;;1.98;1.20;;;18.80;58.50;;;;;;5053763;28;20025;-67
2021/05/23 10:55:24;;;;;;;2.28;1.00;;;18.90;58.90;;;;;;5054161;28;20041;-66
2021/05/23 10:57:55;;;;;;;3.03;0.90;;;18.60;57.70;;;;;;5053682;28;20494;-67
2021/05/23 11:00:24;;;;;;;4.93;1.00;;;18.60;57.80;;;;;;5053683;28;20024;-66
2021/05/23 11:02:51;;;;;;;3.40;1.07;;;18.80;57.30;;;;;;5054126;28;20108;-65
2021/05/23 11:05:29;;;;;;;2.80;0.63;;;18.60;57.30;;;;;;5053006;28;20053;-66
2021/05/23 11:08:07;;;;;;;2.25;1.00;;;18.60;57.30;;;;;;5052249;28;20375;-65
2021/05/23 11:10:46;;;;;;;4.05;0.65;;;18.60;57.00;;;;;;5053488;28;20036;-65
2021/05/23 11:13:26;;;;;;;1.08;0.50;;;18.80;82.00;;;;;;5053737;28;20079;-66
2021/05/23 11:15:53;;;;;;;2.33;0.77;;;18.50;56.80;;;;;;5053318;28;20037;-65
2021/05/23 11:18:21;;;;;;;2.80;0.75;;;18.60;56.90;;;;;;5053630;28;20025;-64
2021/05/23 11:20:55;;;;;;;4.00;0.95;;;18.70;56.70;;;;;;5053596;28;20047;-66
2021/05/23 11:23:21;;;;;;;3.42;0.75;;;18.60;56.60;;;;;;5053186;28;20437;-65
2021/05/23 11:25:48;;;;;;;0.73;0.50;;;18.70;56.70;;;;;;5053247;28;20021;-66
2021/05/23 11:28:19;;;;;;;2.05;0.88;;;18.60;56.50;;;;;;5053138;28;20086;-66
2021/05/23 11:30:45;;;;;;;3.53;1.08;;;18.60;56.60;;;;;;5053359;28;20116;-65
2021/05/23 11:33:13;;;;;;;1.58;0.65;;;18.60;56.50;;;;;;5053090;28;20093;-66
2021/05/23 11:35:40;;;;;;;3.50;0.85;;;18.70;56.50;;;;;;5051629;28;20052;-64
2021/05/23 11:38:06;;;;;;;2.55;0.80;;;18.60;56.50;;;;;;5051677;28;20021;-65
2021/05/23 11:40:35;;;;;;;2.88;0.68;;;18.60;56.50;;;;;;5052761;28;20104;-64
2021/05/23 11:43:19;;;;;;;2.70;0.82;;;18.50;56.40;;;;;;5052883;28;20033;-65
2021/05/23 11:46:02;;;;;;;1.85;0.70;;;18.60;56.30;;;;;;5053059;28;20025;-65
2021/05/23 11:48:34;;;;;;;4.63;0.90;;;18.40;56.40;;;;;;5053015;28;20025;-65
2021/05/23 11:51:00;;;;;;;0.65;0.50;;;18.20;56.20;;;;;;5051485;28;20337;-64
2021/05/23 11:53:35;;;;;;;3.55;1.02;;;18.50;56.30;;;;;;5052977;28;20029;-65
2021/05/23 11:56:02;;;;;;;2.50;0.80;;;18.50;56.30;;;;;;5052649;28;20052;-64
2021/05/23 11:58:27;;;;;;;1.88;0.82;;;18.40;56.30;;;;;;5052705;28;20021;-64
2021/05/23 12:00:53;;;;;;;2.30;0.60;;;18.30;56.20;;;;;;5052715;28;20499;-64
2021/05/23 12:03:18;;;;;;;1.63;0.40;;;18.50;56.30;;;;;;5052638;28;20036;-64
2021/05/23 12:05:48;;;;;;;6.82;1.00;;;18.40;56.20;;;;;;5051377;28;20045;-67
2021/05/23 12:08:23;;;;;;;5.03;0.97;;;17.10;55.60;;;;;;5052368;28;20028;-67
2021/05/23 12:11:01;;;;;;;3.53;0.85;;;18.50;56.60;;;;;;5052459;28;20496;-68
2021/05/23 12:13:44;;;;;;;5.95;1.00;;;18.90;56.90;;;;;;5052681;28;20029;-68
2021/05/23 12:16:12;;;;;;;1.67;0.75;;;18.30;56.40;;;;;;5053584;28;20113;-68
2021/05/23 12:18:41;;;;;;;5.70;0.80;;;18.30;56.20;;;;;;5055275;28;20017;-69
2021/05/23 12:21:10;;;;;;;2.35;0.68;;;18.50;80.20;;;;;;5056918;28;20391;-69
2021/05/23 12:23:36;;;;;;;2.80;0.85;;;18.60;56.10;;;;;;5055486;28;20115;-69
2021/05/23 12:26:21;;;;;;;2.25;0.70;;;18.70;56.00;;;;;;5056571;28;20017;-68
2021/05/23 12:28:49;;;;;;;2.92;0.77;;;18.80;56.70;;;;;;5056541;28;20102;-69
2021/05/23 12:31:20;;;;;;;2.38;0.82;;;18.90;56.00;;;;;;5056662;28;20037;-68
2021/05/23 12:33:57;;;;;;;6.57;1.02;;;19.20;56.20;;;;;;5056417;28;20033;-67
2021/05/23 12:36:27;;;;;;;3.15;0.88;;;18.70;55.50;;;;;;5056343;28;20056;-68
2021/05/23 12:39:05;;;;;;;2.72;0.47;;;18.80;55.60;;;;;;5056465;28;20025;-68
2021/05/23 12:41:45;;;;;;;7.38;0.93;;;19.00;81.10;;;;;;5056421;28;20163;-68
2021/05/23 12:44:28;;;;;;;1.85;0.57;;;19.50;55.90;;;;;;5055023;28;20104;-67
2021/05/23 12:46:53;;;;;;;4.18;0.90;;;19.10;55.80;;;;;;5055230;28;20404;-67
2021/05/23 12:49:25;;;;;;;4.30;0.80;;;19.30;55.60;;;;;;5056066;28;20114;-68
2021/05/23 12:51:53;;;;;;;1.38;0.80;;;19.30;80.40;;;;;;5055979;28;20029;-68
2021/05/23 12:54:32;;;;;;;1.20;0.60;;;19.10;55.20;;;;;;5056265;28;20033;-68